FIN7PW LPMA-EFHK
Flight info
| Callsign | FIN7PW |
|---|---|
| Flight time | 5h 14m |
| Altitude | 32000 |
| Route | MARCU DCT OTZIL DCT VERAM DCT IBIDO/N0448F340 DCT DEMOS DCT LOTEE DCT AZFIC DCT ERIGA DCT GODIX DCT PODEM UN873 BAZOS DCT BELDI DCT VEKIN DCT ADUTO N873 VICOT/N0446F350 DCT SUSET DCT EKNON DCT KUBAT DCT DOSUR DCT MIKSI DCT MADAG DCT UMIXA DCT ABAMA DCT NUGPU DCT LUPET DCT RIRIP Y364 LAKUT |
| Aircraft | A321/M-SDE1E2E3FGHIJ1M1RWXYZ/LB1 |
Departure
| Time | 2026-05-07 14:46 |
|---|---|
| Airport | Cristiano Ronaldo International Airport (LPMA) |
Arrival
| Time | 2026-05-07 20:00 |
|---|---|
| Airport | Helsinki Vantaa Airport (EFHK) |
| Time | Latitude | Longitude | Altitude | Speed | Heading |
|---|---|---|---|---|---|
| 2026-05-07 13:39 | 32.69362 | -16.77664 | 192 ft | 0 kts | 138° |
| 2026-05-07 14:35 | 32.69364 | -16.77666 | 191 ft | 2 kts | 138° |
| 2026-05-07 14:35 | 32.69382 | -16.77686 | 204 ft | 3 kts | 138° |
| 2026-05-07 14:35 | 32.69398 | -16.77702 | 203 ft | 4 kts | 167° |
| 2026-05-07 14:36 | 32.69418 | -16.77697 | 201 ft | 4 kts | 224° |
| 2026-05-07 14:36 | 32.69415 | -16.77702 | 202 ft | 4 kts | 226° |
| 2026-05-07 14:36 | 32.69396 | -16.77725 | 200 ft | 4 kts | 226° |
| 2026-05-07 14:36 | 32.69377 | -16.77748 | 193 ft | 4 kts | 226° |
| 2026-05-07 14:37 | 32.69371 | -16.77755 | 198 ft | 0 kts | 226° |
| 2026-05-07 14:41 | 32.69370 | -16.77757 | 191 ft | 1 kts | 226° |
| 2026-05-07 14:41 | 32.69365 | -16.77763 | 191 ft | 3 kts | 226° |
| 2026-05-07 14:42 | 32.69347 | -16.77785 | 202 ft | 5 kts | 226° |
| 2026-05-07 14:42 | 32.69322 | -16.77817 | 195 ft | 4 kts | 226° |
| 2026-05-07 14:42 | 32.69299 | -16.77846 | 191 ft | 6 kts | 232° |
| 2026-05-07 14:42 | 32.69290 | -16.77895 | 191 ft | 7 kts | 267° |
| 2026-05-07 14:43 | 32.69289 | -16.77970 | 189 ft | 11 kts | 269° |
| 2026-05-07 14:43 | 32.69259 | -16.78061 | 193 ft | 13 kts | 226° |
| 2026-05-07 14:43 | 32.69185 | -16.78146 | 191 ft | 16 kts | 224° |
| 2026-05-07 14:43 | 32.69099 | -16.78245 | 184 ft | 19 kts | 225° |
| 2026-05-07 14:44 | 32.69019 | -16.78340 | 183 ft | 16 kts | 224° |
| 2026-05-07 14:44 | 32.68972 | -16.78386 | 182 ft | 8 kts | 202° |
| 2026-05-07 14:44 | 32.68908 | -16.78408 | 181 ft | 11 kts | 204° |
| 2026-05-07 14:44 | 32.68886 | -16.78437 | 181 ft | 4 kts | 246° |
| 2026-05-07 14:45 | 32.68895 | -16.78468 | 181 ft | 4 kts | 314° |
| 2026-05-07 14:45 | 32.68917 | -16.78458 | 181 ft | 4 kts | 38° |
| 2026-05-07 14:45 | 32.68924 | -16.78451 | 181 ft | 0 kts | 42° |
| 2026-05-07 14:45 | 32.68964 | -16.78405 | 182 ft | 36 kts | 47° |
| 2026-05-07 14:46 | 32.69339 | -16.77971 | 194 ft | 111 kts | 44° |
| 2026-05-07 14:46 | 32.70044 | -16.77148 | 214 ft | 169 kts | 44° |
| 2026-05-07 14:46 | 32.70927 | -16.76112 | 744 ft | 184 kts | 49° |
| 2026-05-07 14:46 | 32.71491 | -16.74715 | 1423 ft | 194 kts | 83° |
| 2026-05-07 14:47 | 32.71264 | -16.73197 | 1984 ft | 184 kts | 115° |
| 2026-05-07 14:47 | 32.70761 | -16.71833 | 2448 ft | 184 kts | 112° |
| 2026-05-07 14:47 | 32.70273 | -16.70422 | 2890 ft | 186 kts | 114° |
| 2026-05-07 14:47 | 32.69750 | -16.68946 | 3063 ft | 203 kts | 114° |
| 2026-05-07 14:48 | 32.69179 | -16.67328 | 3189 ft | 223 kts | 114° |
| 2026-05-07 14:48 | 32.68547 | -16.65526 | 3320 ft | 248 kts | 114° |
| 2026-05-07 14:48 | 32.67864 | -16.63549 | 3624 ft | 265 kts | 113° |
| 2026-05-07 14:48 | 32.67163 | -16.61491 | 4219 ft | 271 kts | 112° |
| 2026-05-07 14:49 | 32.66454 | -16.59401 | 4873 ft | 275 kts | 112° |
| 2026-05-07 14:49 | 32.65985 | -16.57223 | 5446 ft | 279 kts | 94° |
| 2026-05-07 14:49 | 32.66150 | -16.54920 | 6023 ft | 283 kts | 73° |
| 2026-05-07 14:49 | 32.66957 | -16.52799 | 6598 ft | 284 kts | 52° |
| 2026-05-07 14:50 | 32.68309 | -16.51094 | 7133 ft | 285 kts | 37° |
| 2026-05-07 14:50 | 32.69850 | -16.49560 | 7678 ft | 291 kts | 37° |
| 2026-05-07 14:50 | 32.71411 | -16.47993 | 8230 ft | 296 kts | 37° |
| 2026-05-07 14:50 | 32.72979 | -16.46412 | 8778 ft | 301 kts | 37° |
| 2026-05-07 14:51 | 32.74592 | -16.44783 | 9327 ft | 306 kts | 37° |
| 2026-05-07 14:51 | 32.76234 | -16.43118 | 9875 ft | 312 kts | 37° |
| 2026-05-07 14:51 | 32.77910 | -16.41421 | 10217 ft | 325 kts | 37° |
| 2026-05-07 14:51 | 32.79662 | -16.39655 | 10343 ft | 344 kts | 37° |
| 2026-05-07 14:52 | 32.81536 | -16.37763 | 10472 ft | 362 kts | 38° |
| 2026-05-07 14:52 | 32.83623 | -16.35970 | 10659 ft | 373 kts | 25° |
| 2026-05-07 14:52 | 32.86023 | -16.34794 | 11096 ft | 373 kts | 11° |
| 2026-05-07 14:52 | 32.88558 | -16.34311 | 11608 ft | 369 kts | 356° |
| 2026-05-07 14:53 | 32.91120 | -16.34364 | 12153 ft | 369 kts | 353° |
| 2026-05-07 14:53 | 32.93705 | -16.34462 | 12725 ft | 372 kts | 352° |
| 2026-05-07 14:53 | 32.96302 | -16.34562 | 13301 ft | 374 kts | 352° |
| 2026-05-07 14:53 | 32.98916 | -16.34665 | 13867 ft | 377 kts | 352° |
| 2026-05-07 14:54 | 33.01542 | -16.34772 | 14334 ft | 380 kts | 352° |
| 2026-05-07 14:54 | 33.04172 | -16.34879 | 14799 ft | 383 kts | 352° |
| 2026-05-07 14:54 | 33.06861 | -16.34842 | 15260 ft | 392 kts | 0° |
| 2026-05-07 14:54 | 33.09572 | -16.34196 | 15733 ft | 403 kts | 12° |
| 2026-05-07 14:55 | 33.12199 | -16.32885 | 16198 ft | 413 kts | 24° |
| 2026-05-07 14:55 | 33.14708 | -16.31149 | 16657 ft | 418 kts | 26° |
| 2026-05-07 14:55 | 33.17225 | -16.29397 | 17111 ft | 421 kts | 26° |
| 2026-05-07 14:55 | 33.19742 | -16.27650 | 17570 ft | 424 kts | 26° |
| 2026-05-07 14:56 | 33.22310 | -16.25874 | 18033 ft | 428 kts | 26° |
| 2026-05-07 14:56 | 33.24908 | -16.24081 | 18462 ft | 431 kts | 26° |
| 2026-05-07 14:56 | 33.27521 | -16.22276 | 18830 ft | 435 kts | 26° |
| 2026-05-07 14:56 | 33.30121 | -16.20477 | 19198 ft | 439 kts | 26° |
| 2026-05-07 14:57 | 33.32775 | -16.18637 | 19571 ft | 442 kts | 26° |
| 2026-05-07 14:57 | 33.35461 | -16.16775 | 19936 ft | 446 kts | 26° |
| 2026-05-07 14:57 | 33.38168 | -16.14897 | 20299 ft | 450 kts | 26° |
| 2026-05-07 14:57 | 33.40853 | -16.13031 | 20650 ft | 454 kts | 26° |
| 2026-05-07 14:58 | 33.43599 | -16.11120 | 20991 ft | 457 kts | 26° |
| 2026-05-07 14:58 | 33.46361 | -16.09196 | 21332 ft | 461 kts | 26° |
| 2026-05-07 14:58 | 33.49142 | -16.07256 | 21666 ft | 464 kts | 27° |
| 2026-05-07 14:58 | 33.51950 | -16.05295 | 21994 ft | 468 kts | 27° |
| 2026-05-07 14:59 | 33.54782 | -16.03316 | 22316 ft | 471 kts | 27° |
| 2026-05-07 14:59 | 33.57622 | -16.01331 | 22621 ft | 475 kts | 27° |
| 2026-05-07 14:59 | 33.60457 | -15.99351 | 22929 ft | 478 kts | 27° |
| 2026-05-07 14:59 | 33.63347 | -15.97330 | 23228 ft | 481 kts | 27° |
| 2026-05-07 15:00 | 33.66255 | -15.95289 | 23521 ft | 485 kts | 27° |
| 2026-05-07 15:00 | 33.69186 | -15.93232 | 23785 ft | 488 kts | 27° |
| 2026-05-07 15:00 | 33.72098 | -15.91190 | 24050 ft | 490 kts | 27° |
| 2026-05-07 15:00 | 33.75062 | -15.89111 | 24318 ft | 493 kts | 27° |
| 2026-05-07 15:01 | 33.78037 | -15.87024 | 24585 ft | 495 kts | 27° |
| 2026-05-07 15:01 | 33.81023 | -15.84929 | 24849 ft | 497 kts | 27° |
| 2026-05-07 15:01 | 33.83990 | -15.82847 | 25109 ft | 500 kts | 27° |
| 2026-05-07 15:01 | 33.86999 | -15.80731 | 25368 ft | 502 kts | 27° |
| 2026-05-07 15:02 | 33.90027 | -15.78595 | 25624 ft | 504 kts | 27° |
| 2026-05-07 15:02 | 33.93059 | -15.76453 | 25868 ft | 507 kts | 27° |
| 2026-05-07 15:02 | 33.96121 | -15.74288 | 26120 ft | 509 kts | 27° |
| 2026-05-07 15:02 | 33.99187 | -15.72119 | 26358 ft | 512 kts | 27° |
| 2026-05-07 15:03 | 34.02223 | -15.69970 | 26598 ft | 514 kts | 27° |
| 2026-05-07 15:03 | 34.05312 | -15.67781 | 26835 ft | 516 kts | 28° |
| 2026-05-07 15:03 | 34.08421 | -15.65576 | 27074 ft | 518 kts | 27° |
| 2026-05-07 15:03 | 34.11525 | -15.63376 | 27301 ft | 520 kts | 28° |
| 2026-05-07 15:04 | 34.14672 | -15.61148 | 27533 ft | 522 kts | 28° |
| 2026-05-07 15:04 | 34.17806 | -15.58926 | 27761 ft | 525 kts | 28° |
| 2026-05-07 15:04 | 34.20969 | -15.56678 | 27998 ft | 527 kts | 28° |
| 2026-05-07 15:04 | 34.24090 | -15.54456 | 28226 ft | 529 kts | 28° |
| 2026-05-07 15:05 | 34.27273 | -15.52188 | 28450 ft | 531 kts | 28° |
| 2026-05-07 15:05 | 34.30472 | -15.49904 | 28671 ft | 533 kts | 28° |
| 2026-05-07 15:05 | 34.33671 | -15.47617 | 29018 ft | 532 kts | 28° |
| 2026-05-07 15:05 | 34.36865 | -15.45331 | 29361 ft | 532 kts | 28° |
| 2026-05-07 15:06 | 34.40041 | -15.43062 | 29713 ft | 531 kts | 28° |
| 2026-05-07 15:06 | 34.43199 | -15.40811 | 30036 ft | 531 kts | 28° |
| 2026-05-07 15:06 | 34.46393 | -15.38532 | 30329 ft | 531 kts | 28° |
| 2026-05-07 15:06 | 34.49564 | -15.36265 | 30624 ft | 530 kts | 28° |
| 2026-05-07 15:07 | 34.52749 | -15.33979 | 30928 ft | 528 kts | 28° |
| 2026-05-07 15:07 | 34.55906 | -15.31710 | 31217 ft | 527 kts | 28° |
| 2026-05-07 15:07 | 34.59075 | -15.29429 | 31505 ft | 527 kts | 29° |
| 2026-05-07 15:07 | 34.62223 | -15.27162 | 31789 ft | 526 kts | 29° |
| 2026-05-07 15:08 | 34.65334 | -15.24923 | 31976 ft | 525 kts | 29° |
| 2026-05-07 15:08 | 34.68470 | -15.22661 | 32008 ft | 522 kts | 29° |
| 2026-05-07 15:08 | 34.74727 | -15.18151 | 32005 ft | 520 kts | 29° |
| 2026-05-07 15:09 | 34.80940 | -15.13666 | 32006 ft | 519 kts | 29° |
| 2026-05-07 15:09 | 34.87113 | -15.09200 | 32004 ft | 519 kts | 29° |
| 2026-05-07 15:10 | 34.93332 | -15.04688 | 32001 ft | 519 kts | 29° |
| 2026-05-07 15:10 | 34.99536 | -15.00182 | 32005 ft | 519 kts | 29° |
| 2026-05-07 15:11 | 35.05766 | -14.95661 | 32008 ft | 519 kts | 29° |
| 2026-05-07 15:11 | 35.11930 | -14.91172 | 32013 ft | 519 kts | 29° |
| 2026-05-07 15:12 | 35.18129 | -14.86632 | 32019 ft | 519 kts | 30° |
| 2026-05-07 15:12 | 35.24301 | -14.82115 | 32018 ft | 518 kts | 30° |
| 2026-05-07 15:13 | 35.30493 | -14.77577 | 32016 ft | 518 kts | 30° |
| 2026-05-07 15:13 | 35.36685 | -14.73030 | 32016 ft | 518 kts | 30° |
| 2026-05-07 15:14 | 35.42849 | -14.68492 | 32015 ft | 518 kts | 30° |
| 2026-05-07 15:14 | 35.49046 | -14.63930 | 32014 ft | 518 kts | 30° |
| 2026-05-07 15:15 | 35.55202 | -14.59393 | 32013 ft | 518 kts | 30° |
| 2026-05-07 15:15 | 35.61387 | -14.54810 | 32012 ft | 518 kts | 30° |
| 2026-05-07 15:16 | 35.67572 | -14.50228 | 32011 ft | 518 kts | 30° |
| 2026-05-07 15:16 | 35.73721 | -14.45661 | 32012 ft | 518 kts | 30° |
| 2026-05-07 15:17 | 35.79899 | -14.41060 | 32010 ft | 518 kts | 30° |
| 2026-05-07 15:17 | 35.85029 | -14.37237 | 32012 ft | 518 kts | 30° |
| 2026-05-07 15:18 | 35.92209 | -14.31879 | 32011 ft | 518 kts | 30° |
| 2026-05-07 15:18 | 35.97343 | -14.28038 | 32008 ft | 518 kts | 30° |
| 2026-05-07 15:19 | 36.03518 | -14.23419 | 32008 ft | 518 kts | 30° |
| 2026-05-07 15:19 | 36.09702 | -14.18790 | 32182 ft | 521 kts | 30° |
| 2026-05-07 15:20 | 36.13815 | -14.15698 | 32487 ft | 522 kts | 30° |
| 2026-05-07 15:20 | 36.15870 | -14.14149 | 32644 ft | 522 kts | 30° |
| 2026-05-07 15:20 | 36.18971 | -14.11813 | 32879 ft | 522 kts | 30° |
| 2026-05-07 15:20 | 36.22079 | -14.09465 | 33124 ft | 521 kts | 30° |
| 2026-05-07 15:21 | 36.25176 | -14.07125 | 33364 ft | 521 kts | 30° |
| 2026-05-07 15:21 | 36.28276 | -14.04783 | 33602 ft | 521 kts | 30° |
| 2026-05-07 15:21 | 36.31378 | -14.02441 | 33844 ft | 521 kts | 30° |
| 2026-05-07 15:21 | 36.34441 | -14.00130 | 33981 ft | 521 kts | 30° |
| 2026-05-07 15:22 | 36.40641 | -13.95440 | 33990 ft | 521 kts | 30° |
| 2026-05-07 15:22 | 36.46823 | -13.90760 | 33988 ft | 520 kts | 30° |
| 2026-05-07 15:23 | 36.52999 | -13.86069 | 33989 ft | 520 kts | 30° |
| 2026-05-07 15:23 | 36.59125 | -13.81392 | 33982 ft | 519 kts | 30° |
| 2026-05-07 15:24 | 36.65295 | -13.76667 | 33991 ft | 520 kts | 30° |
| 2026-05-07 15:24 | 36.71458 | -13.71953 | 33996 ft | 520 kts | 30° |
| 2026-05-07 15:25 | 36.77595 | -13.67262 | 34002 ft | 520 kts | 30° |
| 2026-05-07 15:25 | 36.83725 | -13.62475 | 34004 ft | 520 kts | 31° |
| 2026-05-07 15:26 | 36.89829 | -13.57590 | 34007 ft | 520 kts | 32° |
| 2026-05-07 15:26 | 36.95931 | -13.52694 | 34007 ft | 519 kts | 31° |
| 2026-05-07 15:27 | 37.01990 | -13.47852 | 34004 ft | 519 kts | 31° |
| 2026-05-07 15:27 | 37.08097 | -13.42990 | 34004 ft | 519 kts | 31° |
| 2026-05-07 15:28 | 37.14151 | -13.38153 | 34003 ft | 518 kts | 31° |
| 2026-05-07 15:28 | 37.20234 | -13.33279 | 34004 ft | 518 kts | 31° |
| 2026-05-07 15:29 | 37.26314 | -13.28397 | 34004 ft | 517 kts | 31° |
| 2026-05-07 15:29 | 37.32332 | -13.23551 | 34004 ft | 517 kts | 31° |
| 2026-05-07 15:30 | 37.38388 | -13.18668 | 33998 ft | 516 kts | 31° |
| 2026-05-07 15:30 | 37.44411 | -13.13814 | 34001 ft | 515 kts | 31° |
| 2026-05-07 15:31 | 37.50440 | -13.08916 | 34004 ft | 514 kts | 32° |
| 2026-05-07 15:31 | 37.56460 | -13.04035 | 33999 ft | 514 kts | 31° |
| 2026-05-07 15:32 | 37.62475 | -12.99155 | 34000 ft | 513 kts | 31° |
| 2026-05-07 15:32 | 37.68454 | -12.94288 | 33995 ft | 512 kts | 32° |
| 2026-05-07 15:33 | 37.74446 | -12.89393 | 33996 ft | 512 kts | 31° |
| 2026-05-07 15:33 | 37.80417 | -12.84500 | 33993 ft | 511 kts | 32° |
| 2026-05-07 15:34 | 37.86355 | -12.79632 | 33993 ft | 511 kts | 31° |
| 2026-05-07 15:34 | 37.92334 | -12.74736 | 33993 ft | 510 kts | 31° |
| 2026-05-07 15:35 | 37.98265 | -12.69866 | 33994 ft | 510 kts | 32° |
| 2026-05-07 15:35 | 38.04223 | -12.64953 | 33994 ft | 509 kts | 32° |
| 2026-05-07 15:36 | 38.10169 | -12.60044 | 33991 ft | 509 kts | 32° |
| 2026-05-07 15:36 | 38.16078 | -12.55163 | 33989 ft | 509 kts | 31° |
| 2026-05-07 15:37 | 38.22006 | -12.50252 | 33991 ft | 508 kts | 32° |
| 2026-05-07 15:37 | 38.27940 | -12.45320 | 33989 ft | 508 kts | 31° |
| 2026-05-07 15:38 | 38.33820 | -12.40421 | 33993 ft | 507 kts | 31° |
| 2026-05-07 15:38 | 38.39734 | -12.35485 | 33991 ft | 507 kts | 31° |
| 2026-05-07 15:39 | 38.45637 | -12.30556 | 33990 ft | 506 kts | 31° |
| 2026-05-07 15:39 | 38.51492 | -12.25659 | 33991 ft | 505 kts | 31° |
| 2026-05-07 15:40 | 38.57371 | -12.20740 | 33983 ft | 504 kts | 31° |
| 2026-05-07 15:40 | 38.63251 | -12.15797 | 33985 ft | 504 kts | 31° |
| 2026-05-07 15:41 | 38.69102 | -12.10866 | 33981 ft | 503 kts | 31° |
| 2026-05-07 15:41 | 38.74917 | -12.05954 | 33983 ft | 503 kts | 31° |
| 2026-05-07 15:42 | 38.80757 | -12.01023 | 33980 ft | 502 kts | 31° |
| 2026-05-07 15:42 | 38.86594 | -11.96088 | 33983 ft | 502 kts | 31° |
| 2026-05-07 15:43 | 38.92379 | -11.91169 | 33983 ft | 501 kts | 31° |
| 2026-05-07 15:43 | 38.98209 | -11.86204 | 33983 ft | 501 kts | 31° |
| 2026-05-07 15:44 | 39.04026 | -11.81248 | 33979 ft | 500 kts | 31° |
| 2026-05-07 15:44 | 39.09798 | -11.76327 | 33978 ft | 500 kts | 31° |
| 2026-05-07 15:45 | 39.15608 | -11.71361 | 33976 ft | 500 kts | 31° |
| 2026-05-07 15:45 | 39.21375 | -11.66412 | 33977 ft | 499 kts | 31° |
| 2026-05-07 15:46 | 39.30063 | -11.58934 | 33976 ft | 499 kts | 31° |
| 2026-05-07 15:47 | 39.35841 | -11.53948 | 33969 ft | 499 kts | 31° |
| 2026-05-07 15:47 | 39.41592 | -11.48992 | 33975 ft | 499 kts | 31° |
| 2026-05-07 15:48 | 39.47383 | -11.43999 | 33968 ft | 499 kts | 31° |
| 2026-05-07 15:48 | 39.53117 | -11.39023 | 33968 ft | 499 kts | 31° |
| 2026-05-07 15:49 | 39.58886 | -11.34001 | 33973 ft | 499 kts | 31° |
| 2026-05-07 15:49 | 39.64652 | -11.28980 | 33973 ft | 498 kts | 31° |
| 2026-05-07 15:50 | 39.70383 | -11.23998 | 33962 ft | 498 kts | 31° |
| 2026-05-07 15:50 | 39.76156 | -11.18959 | 33963 ft | 498 kts | 31° |
| 2026-05-07 15:51 | 39.81911 | -11.13914 | 33981 ft | 498 kts | 31° |
| 2026-05-07 15:51 | 39.87651 | -11.08860 | 33966 ft | 498 kts | 31° |
| 2026-05-07 15:52 | 39.93371 | -11.03827 | 33965 ft | 498 kts | 31° |
| 2026-05-07 15:52 | 39.99127 | -10.98770 | 33967 ft | 497 kts | 31° |
| 2026-05-07 15:53 | 40.04834 | -10.93741 | 33969 ft | 497 kts | 31° |
| 2026-05-07 15:53 | 40.10555 | -10.88676 | 33964 ft | 497 kts | 30° |
| 2026-05-07 15:54 | 40.16294 | -10.83595 | 33961 ft | 496 kts | 30° |
| 2026-05-07 15:54 | 40.21979 | -10.78536 | 33961 ft | 496 kts | 30° |
| 2026-05-07 15:55 | 40.27680 | -10.73458 | 33962 ft | 496 kts | 30° |
| 2026-05-07 15:55 | 40.33394 | -10.68367 | 33958 ft | 495 kts | 30° |
| 2026-05-07 15:56 | 40.39087 | -10.63280 | 33960 ft | 494 kts | 30° |
| 2026-05-07 15:56 | 40.44765 | -10.58187 | 33963 ft | 494 kts | 30° |
| 2026-05-07 15:57 | 40.50395 | -10.53124 | 33962 ft | 493 kts | 30° |
| 2026-05-07 15:57 | 40.56069 | -10.48018 | 33958 ft | 492 kts | 30° |
| 2026-05-07 15:58 | 40.61729 | -10.42928 | 33965 ft | 492 kts | 30° |
| 2026-05-07 15:58 | 40.67369 | -10.37833 | 33958 ft | 491 kts | 30° |
| 2026-05-07 15:59 | 40.72981 | -10.32742 | 33955 ft | 491 kts | 30° |
| 2026-05-07 15:59 | 40.78576 | -10.27665 | 33957 ft | 490 kts | 30° |
| 2026-05-07 16:00 | 40.84207 | -10.22555 | 33956 ft | 489 kts | 30° |
| 2026-05-07 16:00 | 40.89826 | -10.17485 | 33959 ft | 487 kts | 28° |
| 2026-05-07 16:01 | 40.95571 | -10.12878 | 33957 ft | 484 kts | 25° |
| 2026-05-07 16:01 | 41.01436 | -10.08499 | 33954 ft | 483 kts | 25° |
| 2026-05-07 16:02 | 41.07273 | -10.04059 | 33948 ft | 483 kts | 26° |
| 2026-05-07 16:02 | 41.13028 | -9.99541 | 33948 ft | 483 kts | 26° |
| 2026-05-07 16:03 | 41.18801 | -9.94973 | 33938 ft | 482 kts | 26° |
| 2026-05-07 16:03 | 41.24548 | -9.90444 | 33937 ft | 482 kts | 26° |
| 2026-05-07 16:04 | 41.30323 | -9.85890 | 33937 ft | 482 kts | 26° |
| 2026-05-07 16:04 | 41.36085 | -9.81336 | 33935 ft | 482 kts | 26° |
| 2026-05-07 16:05 | 41.41864 | -9.76765 | 33910 ft | 482 kts | 26° |
| 2026-05-07 16:05 | 41.47612 | -9.72212 | 33916 ft | 482 kts | 26° |
| 2026-05-07 16:06 | 41.53355 | -9.67651 | 33900 ft | 482 kts | 26° |
| 2026-05-07 16:06 | 41.59107 | -9.63060 | 33917 ft | 481 kts | 26° |
| 2026-05-07 16:07 | 41.63902 | -9.59230 | 33914 ft | 481 kts | 26° |
| 2026-05-07 16:07 | 41.69647 | -9.54631 | 33932 ft | 481 kts | 26° |
| 2026-05-07 16:08 | 41.75351 | -9.50067 | 33919 ft | 480 kts | 26° |
| 2026-05-07 16:08 | 41.81097 | -9.45461 | 33930 ft | 480 kts | 26° |
| 2026-05-07 16:09 | 41.86833 | -9.40835 | 33936 ft | 479 kts | 26° |
| 2026-05-07 16:09 | 41.92467 | -9.36133 | 33929 ft | 481 kts | 32° |
| 2026-05-07 16:10 | 41.97545 | -9.30196 | 33933 ft | 484 kts | 38° |
| 2026-05-07 16:10 | 42.02542 | -9.24117 | 33926 ft | 483 kts | 38° |
| 2026-05-07 16:11 | 42.07496 | -9.18087 | 33931 ft | 482 kts | 38° |
| 2026-05-07 16:11 | 42.12475 | -9.12030 | 33925 ft | 481 kts | 38° |
| 2026-05-07 16:12 | 42.17403 | -9.06010 | 33925 ft | 480 kts | 38° |
| 2026-05-07 16:12 | 42.22345 | -8.99943 | 33922 ft | 479 kts | 38° |
| 2026-05-07 16:13 | 42.27267 | -8.93893 | 33926 ft | 478 kts | 38° |
| 2026-05-07 16:13 | 42.32177 | -8.87858 | 33924 ft | 477 kts | 38° |
| 2026-05-07 16:14 | 42.37062 | -8.81841 | 33926 ft | 476 kts | 38° |
| 2026-05-07 16:14 | 42.41955 | -8.75796 | 33921 ft | 476 kts | 38° |
| 2026-05-07 16:15 | 42.46819 | -8.69777 | 33922 ft | 475 kts | 38° |
| 2026-05-07 16:15 | 42.51693 | -8.63730 | 33919 ft | 475 kts | 38° |
| 2026-05-07 16:16 | 42.56572 | -8.57657 | 33915 ft | 475 kts | 38° |
| 2026-05-07 16:16 | 42.61437 | -8.51578 | 33917 ft | 474 kts | 38° |
| 2026-05-07 16:17 | 42.66297 | -8.45511 | 33919 ft | 473 kts | 38° |
| 2026-05-07 16:17 | 42.71121 | -8.39486 | 33920 ft | 473 kts | 38° |
| 2026-05-07 16:18 | 42.75961 | -8.33413 | 33924 ft | 472 kts | 38° |
| 2026-05-07 16:18 | 42.80790 | -8.27337 | 33926 ft | 471 kts | 38° |
| 2026-05-07 16:19 | 42.85574 | -8.21307 | 33925 ft | 471 kts | 38° |
| 2026-05-07 16:19 | 42.90382 | -8.15228 | 33922 ft | 470 kts | 38° |
| 2026-05-07 16:20 | 42.95173 | -8.09161 | 33923 ft | 469 kts | 38° |
| 2026-05-07 16:20 | 42.99928 | -8.03129 | 33922 ft | 469 kts | 38° |
| 2026-05-07 16:21 | 43.04698 | -7.97064 | 33918 ft | 468 kts | 39° |
| 2026-05-07 16:21 | 43.09467 | -7.90997 | 33902 ft | 467 kts | 39° |
| 2026-05-07 16:22 | 43.14220 | -7.84927 | 33909 ft | 466 kts | 39° |
| 2026-05-07 16:22 | 43.18928 | -7.78895 | 33911 ft | 466 kts | 39° |
| 2026-05-07 16:23 | 43.23642 | -7.72837 | 33917 ft | 465 kts | 39° |
| 2026-05-07 16:23 | 43.28358 | -7.66767 | 33919 ft | 465 kts | 39° |
| 2026-05-07 16:24 | 43.33079 | -7.60696 | 33923 ft | 464 kts | 39° |
| 2026-05-07 16:24 | 43.37784 | -7.54614 | 33917 ft | 463 kts | 39° |
| 2026-05-07 16:25 | 43.42475 | -7.48532 | 33924 ft | 462 kts | 39° |
| 2026-05-07 16:25 | 43.47138 | -7.42485 | 33920 ft | 462 kts | 39° |
| 2026-05-07 16:26 | 43.51814 | -7.36414 | 33923 ft | 461 kts | 40° |
| 2026-05-07 16:26 | 43.56446 | -7.30376 | 33923 ft | 460 kts | 40° |
| 2026-05-07 16:27 | 43.61100 | -7.24289 | 33927 ft | 460 kts | 40° |
| 2026-05-07 16:27 | 43.65753 | -7.18200 | 33922 ft | 460 kts | 40° |
| 2026-05-07 16:28 | 43.70366 | -7.12159 | 33928 ft | 459 kts | 40° |
| 2026-05-07 16:28 | 43.75009 | -7.06052 | 33918 ft | 459 kts | 40° |
| 2026-05-07 16:29 | 43.79639 | -6.99944 | 33927 ft | 459 kts | 40° |
| 2026-05-07 16:29 | 43.84239 | -6.93860 | 33925 ft | 459 kts | 40° |
| 2026-05-07 16:30 | 43.88865 | -6.87732 | 33918 ft | 459 kts | 41° |
| 2026-05-07 16:30 | 43.93463 | -6.81636 | 33919 ft | 459 kts | 41° |
| 2026-05-07 16:31 | 43.98083 | -6.75490 | 33915 ft | 460 kts | 41° |
| 2026-05-07 16:31 | 44.02701 | -6.69334 | 33915 ft | 460 kts | 41° |
| 2026-05-07 16:32 | 44.07303 | -6.63198 | 33919 ft | 460 kts | 41° |
| 2026-05-07 16:32 | 44.11918 | -6.57029 | 33923 ft | 460 kts | 41° |
| 2026-05-07 16:33 | 44.16545 | -6.50819 | 33927 ft | 460 kts | 41° |
| 2026-05-07 16:33 | 44.21112 | -6.44663 | 33932 ft | 460 kts | 42° |
| 2026-05-07 16:34 | 44.25717 | -6.38451 | 33935 ft | 460 kts | 42° |
| 2026-05-07 16:34 | 44.30325 | -6.32233 | 33940 ft | 460 kts | 42° |
| 2026-05-07 16:35 | 44.34917 | -6.26005 | 33943 ft | 460 kts | 42° |
| 2026-05-07 16:35 | 44.39475 | -6.19825 | 33943 ft | 459 kts | 42° |
| 2026-05-07 16:36 | 44.44060 | -6.13590 | 33945 ft | 459 kts | 42° |
| 2026-05-07 16:36 | 44.48646 | -6.07334 | 33945 ft | 458 kts | 42° |
| 2026-05-07 16:37 | 44.53185 | -6.01117 | 33942 ft | 458 kts | 42° |
| 2026-05-07 16:37 | 44.57748 | -5.94859 | 33947 ft | 458 kts | 42° |
| 2026-05-07 16:38 | 44.62290 | -5.88630 | 33948 ft | 458 kts | 42° |
| 2026-05-07 16:38 | 44.66824 | -5.82402 | 33950 ft | 458 kts | 42° |
| 2026-05-07 16:39 | 44.71390 | -5.76155 | 33955 ft | 458 kts | 42° |
| 2026-05-07 16:39 | 44.75960 | -5.69904 | 33956 ft | 458 kts | 42° |
| 2026-05-07 16:40 | 44.80525 | -5.63643 | 33958 ft | 457 kts | 43° |
| 2026-05-07 16:40 | 44.85054 | -5.57408 | 33962 ft | 457 kts | 43° |
| 2026-05-07 16:41 | 44.89601 | -5.51122 | 33967 ft | 456 kts | 43° |
| 2026-05-07 16:41 | 44.94137 | -5.44843 | 33967 ft | 456 kts | 43° |
| 2026-05-07 16:42 | 44.98635 | -5.38606 | 33964 ft | 455 kts | 43° |
| 2026-05-07 16:42 | 45.03163 | -5.32323 | 33963 ft | 455 kts | 43° |
| 2026-05-07 16:43 | 45.07677 | -5.26044 | 33966 ft | 455 kts | 43° |
| 2026-05-07 16:43 | 45.12191 | -5.19753 | 33965 ft | 455 kts | 43° |
| 2026-05-07 16:44 | 45.16676 | -5.13474 | 33966 ft | 455 kts | 43° |
| 2026-05-07 16:44 | 45.21179 | -5.07132 | 33965 ft | 455 kts | 43° |
| 2026-05-07 16:45 | 45.25642 | -5.00854 | 33968 ft | 455 kts | 43° |
| 2026-05-07 16:45 | 45.30158 | -4.94508 | 33968 ft | 455 kts | 44° |
| 2026-05-07 16:46 | 45.34629 | -4.88194 | 33971 ft | 455 kts | 44° |
| 2026-05-07 16:46 | 45.39130 | -4.81821 | 33975 ft | 455 kts | 44° |
| 2026-05-07 16:47 | 45.43604 | -4.75472 | 33973 ft | 454 kts | 44° |
| 2026-05-07 16:47 | 45.48056 | -4.69137 | 33974 ft | 454 kts | 44° |
| 2026-05-07 16:48 | 45.52526 | -4.62748 | 33975 ft | 454 kts | 44° |
| 2026-05-07 16:48 | 45.56997 | -4.56363 | 33978 ft | 454 kts | 44° |
| 2026-05-07 16:49 | 45.61459 | -4.49977 | 33982 ft | 454 kts | 44° |
| 2026-05-07 16:49 | 45.65929 | -4.43560 | 33985 ft | 454 kts | 44° |
| 2026-05-07 16:50 | 45.70366 | -4.37172 | 33984 ft | 455 kts | 44° |
| 2026-05-07 16:50 | 45.74823 | -4.30745 | 33985 ft | 454 kts | 44° |
| 2026-05-07 16:51 | 45.79247 | -4.24333 | 33985 ft | 454 kts | 44° |
| 2026-05-07 16:51 | 45.83697 | -4.17875 | 33985 ft | 454 kts | 44° |
| 2026-05-07 16:52 | 45.88139 | -4.11429 | 33987 ft | 453 kts | 44° |
| 2026-05-07 16:52 | 45.92554 | -4.05004 | 33988 ft | 453 kts | 44° |
| 2026-05-07 16:53 | 45.96978 | -3.98548 | 33992 ft | 453 kts | 44° |
| 2026-05-07 16:53 | 46.01398 | -3.92083 | 33991 ft | 453 kts | 44° |
| 2026-05-07 16:54 | 46.05788 | -3.85631 | 33994 ft | 453 kts | 44° |
| 2026-05-07 16:54 | 46.10210 | -3.79125 | 33997 ft | 452 kts | 44° |
| 2026-05-07 16:55 | 46.14577 | -3.72687 | 34001 ft | 452 kts | 44° |
| 2026-05-07 16:55 | 46.18969 | -3.66193 | 34001 ft | 451 kts | 44° |
| 2026-05-07 16:56 | 46.22611 | -3.60798 | 33998 ft | 450 kts | 44° |
| 2026-05-07 16:56 | 46.29163 | -3.51064 | 34000 ft | 449 kts | 44° |
| 2026-05-07 16:57 | 46.33489 | -3.44609 | 34007 ft | 448 kts | 44° |
| 2026-05-07 16:57 | 46.37832 | -3.38132 | 34001 ft | 448 kts | 44° |
| 2026-05-07 16:58 | 46.42158 | -3.31642 | 34000 ft | 447 kts | 44° |
| 2026-05-07 16:58 | 46.46484 | -3.25141 | 34003 ft | 447 kts | 44° |
| 2026-05-07 16:59 | 46.50794 | -3.18663 | 34005 ft | 446 kts | 44° |
| 2026-05-07 16:59 | 46.55096 | -3.12159 | 34000 ft | 445 kts | 45° |
| 2026-05-07 17:00 | 46.58722 | -3.04926 | 34003 ft | 447 kts | 58° |
| 2026-05-07 17:00 | 46.61852 | -2.97112 | 34005 ft | 447 kts | 58° |
| 2026-05-07 17:01 | 46.64995 | -2.89276 | 34009 ft | 447 kts | 58° |
| 2026-05-07 17:01 | 46.68114 | -2.81493 | 34012 ft | 446 kts | 58° |
| 2026-05-07 17:02 | 46.71235 | -2.73666 | 34009 ft | 446 kts | 58° |
| 2026-05-07 17:02 | 46.74339 | -2.65842 | 34004 ft | 445 kts | 58° |
| 2026-05-07 17:03 | 46.77425 | -2.58060 | 34003 ft | 445 kts | 58° |
| 2026-05-07 17:03 | 46.80525 | -2.50219 | 34000 ft | 445 kts | 58° |
| 2026-05-07 17:04 | 46.83618 | -2.42387 | 34002 ft | 444 kts | 58° |
| 2026-05-07 17:04 | 46.86988 | -2.34930 | 33994 ft | 441 kts | 46° |
| 2026-05-07 17:05 | 46.91270 | -2.28522 | 33983 ft | 439 kts | 43° |
| 2026-05-07 17:05 | 46.95531 | -2.22196 | 33958 ft | 439 kts | 43° |
| 2026-05-07 17:06 | 46.99836 | -2.15791 | 33966 ft | 439 kts | 44° |
| 2026-05-07 17:06 | 47.04098 | -2.09424 | 33965 ft | 439 kts | 44° |
| 2026-05-07 17:07 | 47.08402 | -2.02999 | 33971 ft | 440 kts | 44° |
| 2026-05-07 17:07 | 47.12665 | -1.96608 | 33976 ft | 441 kts | 44° |
| 2026-05-07 17:08 | 47.16959 | -1.90151 | 33978 ft | 441 kts | 44° |
| 2026-05-07 17:08 | 47.21233 | -1.83719 | 33983 ft | 441 kts | 44° |
| 2026-05-07 17:09 | 47.25522 | -1.77248 | 33980 ft | 441 kts | 44° |
| 2026-05-07 17:09 | 47.29805 | -1.70759 | 33975 ft | 441 kts | 44° |
| 2026-05-07 17:10 | 47.34095 | -1.64245 | 33977 ft | 442 kts | 44° |
| 2026-05-07 17:10 | 47.38351 | -1.57777 | 33975 ft | 442 kts | 44° |
| 2026-05-07 17:11 | 47.42635 | -1.51249 | 33967 ft | 442 kts | 44° |
| 2026-05-07 17:11 | 47.46920 | -1.44696 | 33976 ft | 443 kts | 44° |
| 2026-05-07 17:12 | 47.51206 | -1.38125 | 33968 ft | 443 kts | 44° |
| 2026-05-07 17:12 | 47.55467 | -1.31578 | 33981 ft | 444 kts | 45° |
| 2026-05-07 17:13 | 47.59760 | -1.24974 | 33979 ft | 444 kts | 45° |
| 2026-05-07 17:13 | 47.64049 | -1.18354 | 33984 ft | 444 kts | 45° |
| 2026-05-07 17:14 | 47.68302 | -1.11762 | 33994 ft | 445 kts | 45° |
| 2026-05-07 17:14 | 47.72593 | -1.05103 | 33999 ft | 445 kts | 45° |
| 2026-05-07 17:15 | 47.76844 | -0.98487 | 33993 ft | 445 kts | 45° |
| 2026-05-07 17:15 | 47.81135 | -0.91796 | 34005 ft | 446 kts | 45° |
| 2026-05-07 17:16 | 47.85425 | -0.85083 | 34004 ft | 446 kts | 45° |
| 2026-05-07 17:16 | 47.89680 | -0.78414 | 34016 ft | 446 kts | 45° |
| 2026-05-07 17:17 | 47.93973 | -0.71676 | 34009 ft | 447 kts | 45° |
| 2026-05-07 17:17 | 47.98221 | -0.64980 | 34009 ft | 447 kts | 45° |
| 2026-05-07 17:18 | 48.02487 | -0.58227 | 34009 ft | 447 kts | 45° |
| 2026-05-07 17:18 | 48.06764 | -0.51443 | 34016 ft | 447 kts | 45° |
| 2026-05-07 17:19 | 48.11051 | -0.44652 | 34015 ft | 448 kts | 45° |
| 2026-05-07 17:19 | 48.15298 | -0.37900 | 34017 ft | 448 kts | 46° |
| 2026-05-07 17:20 | 48.19568 | -0.31075 | 34025 ft | 448 kts | 46° |
| 2026-05-07 17:20 | 48.23829 | -0.24237 | 34026 ft | 448 kts | 46° |
| 2026-05-07 17:21 | 48.28076 | -0.17418 | 34028 ft | 448 kts | 46° |
| 2026-05-07 17:21 | 48.32342 | -0.10563 | 34022 ft | 449 kts | 46° |
| 2026-05-07 17:22 | 48.36581 | -0.03722 | 34017 ft | 449 kts | 46° |
| 2026-05-07 17:22 | 48.40741 | 0.03312 | 34024 ft | 449 kts | 48° |
| 2026-05-07 17:23 | 48.44802 | 0.10439 | 34022 ft | 450 kts | 49° |
| 2026-05-07 17:23 | 48.48876 | 0.17595 | 34023 ft | 450 kts | 48° |
| 2026-05-07 17:24 | 48.52987 | 0.24744 | 34035 ft | 450 kts | 48° |
| 2026-05-07 17:24 | 48.57079 | 0.31863 | 34029 ft | 450 kts | 48° |
| 2026-05-07 17:25 | 48.61179 | 0.39038 | 34026 ft | 451 kts | 48° |
| 2026-05-07 17:25 | 48.65276 | 0.46217 | 34038 ft | 451 kts | 48° |
| 2026-05-07 17:26 | 48.69351 | 0.53378 | 34031 ft | 451 kts | 49° |
| 2026-05-07 17:26 | 48.73449 | 0.60610 | 34034 ft | 451 kts | 49° |
| 2026-05-07 17:27 | 48.77538 | 0.67842 | 34039 ft | 451 kts | 49° |
| 2026-05-07 17:27 | 48.81602 | 0.75034 | 34039 ft | 451 kts | 49° |
| 2026-05-07 17:28 | 48.85686 | 0.82293 | 34049 ft | 452 kts | 49° |
| 2026-05-07 17:28 | 48.89762 | 0.89557 | 34053 ft | 452 kts | 49° |
| 2026-05-07 17:29 | 48.93821 | 0.96798 | 34038 ft | 452 kts | 49° |
| 2026-05-07 17:29 | 48.97894 | 1.04101 | 34043 ft | 452 kts | 49° |
| 2026-05-07 17:30 | 49.01939 | 1.11395 | 34039 ft | 452 kts | 49° |
| 2026-05-07 17:30 | 49.06013 | 1.18726 | 34044 ft | 452 kts | 49° |
| 2026-05-07 17:31 | 49.08049 | 1.22395 | 33939 ft | 453 kts | 49° |
| 2026-05-07 17:31 | 49.10091 | 1.26082 | 34028 ft | 457 kts | 49° |
| 2026-05-07 17:31 | 49.14197 | 1.33521 | 34027 ft | 461 kts | 49° |
| 2026-05-07 17:32 | 49.18343 | 1.41062 | 34032 ft | 463 kts | 49° |
| 2026-05-07 17:32 | 49.21786 | 1.47342 | 34042 ft | 463 kts | 49° |
| 2026-05-07 17:33 | 49.26697 | 1.56112 | 34046 ft | 463 kts | 43° |
| 2026-05-07 17:33 | 49.31347 | 1.62871 | 34053 ft | 463 kts | 42° |
| 2026-05-07 17:34 | 49.36021 | 1.69689 | 34067 ft | 463 kts | 43° |
| 2026-05-07 17:34 | 49.40663 | 1.76505 | 34072 ft | 463 kts | 43° |
| 2026-05-07 17:35 | 49.45327 | 1.83377 | 34073 ft | 463 kts | 43° |
| 2026-05-07 17:35 | 49.49988 | 1.90240 | 34079 ft | 463 kts | 43° |
| 2026-05-07 17:36 | 49.54610 | 1.97060 | 34077 ft | 463 kts | 43° |
| 2026-05-07 17:36 | 49.59267 | 2.03961 | 34076 ft | 463 kts | 43° |
| 2026-05-07 17:37 | 49.63906 | 2.10864 | 34075 ft | 463 kts | 43° |
| 2026-05-07 17:37 | 49.68542 | 2.17779 | 34072 ft | 463 kts | 43° |
| 2026-05-07 17:38 | 49.73154 | 2.24674 | 34072 ft | 463 kts | 43° |
| 2026-05-07 17:38 | 49.77780 | 2.31600 | 34071 ft | 463 kts | 43° |
| 2026-05-07 17:39 | 49.82416 | 2.38551 | 34071 ft | 463 kts | 43° |
| 2026-05-07 17:39 | 49.87011 | 2.45481 | 34075 ft | 463 kts | 43° |
| 2026-05-07 17:40 | 49.91620 | 2.52463 | 34077 ft | 463 kts | 43° |
| 2026-05-07 17:40 | 49.96233 | 2.59465 | 34083 ft | 463 kts | 43° |
| 2026-05-07 17:41 | 50.00818 | 2.66434 | 34080 ft | 463 kts | 43° |
| 2026-05-07 17:41 | 50.05431 | 2.73461 | 34082 ft | 463 kts | 43° |
| 2026-05-07 17:42 | 50.09266 | 2.79324 | 34079 ft | 463 kts | 43° |
| 2026-05-07 17:42 | 50.13870 | 2.86380 | 34077 ft | 463 kts | 43° |
| 2026-05-07 17:43 | 50.18459 | 2.93444 | 34074 ft | 463 kts | 43° |
| 2026-05-07 17:43 | 50.23020 | 3.00485 | 34077 ft | 463 kts | 43° |
| 2026-05-07 17:44 | 50.27611 | 3.07583 | 34088 ft | 463 kts | 43° |
| 2026-05-07 17:44 | 50.32198 | 3.14696 | 34090 ft | 463 kts | 43° |
| 2026-05-07 17:45 | 50.36779 | 3.21818 | 34098 ft | 463 kts | 43° |
| 2026-05-07 17:45 | 50.41675 | 3.28261 | 34381 ft | 461 kts | 30° |
| 2026-05-07 17:46 | 50.44485 | 3.30689 | 34634 ft | 459 kts | 23° |
| 2026-05-07 17:46 | 50.47349 | 3.32870 | 34870 ft | 459 kts | 24° |
| 2026-05-07 17:46 | 50.50228 | 3.35103 | 35037 ft | 461 kts | 24° |
| 2026-05-07 17:46 | 50.53113 | 3.37328 | 35075 ft | 461 kts | 23° |
| 2026-05-07 17:47 | 50.58928 | 3.41457 | 35073 ft | 460 kts | 21° |
| 2026-05-07 17:47 | 50.64824 | 3.45389 | 35071 ft | 460 kts | 20° |
| 2026-05-07 17:48 | 50.70677 | 3.49347 | 35068 ft | 460 kts | 21° |
| 2026-05-07 17:48 | 50.76559 | 3.53418 | 35068 ft | 460 kts | 21° |
| 2026-05-07 17:49 | 50.82418 | 3.57507 | 35073 ft | 460 kts | 21° |
| 2026-05-07 17:49 | 50.88269 | 3.61598 | 35079 ft | 461 kts | 21° |
| 2026-05-07 17:50 | 50.94138 | 3.65712 | 35080 ft | 461 kts | 22° |
| 2026-05-07 17:50 | 51.00006 | 3.69919 | 35085 ft | 461 kts | 22° |
| 2026-05-07 17:51 | 51.05813 | 3.74136 | 35091 ft | 462 kts | 22° |
| 2026-05-07 17:51 | 51.11678 | 3.78388 | 35091 ft | 462 kts | 22° |
| 2026-05-07 17:52 | 51.17538 | 3.82619 | 35098 ft | 461 kts | 22° |
| 2026-05-07 17:52 | 51.23351 | 3.86837 | 35099 ft | 461 kts | 22° |
| 2026-05-07 17:53 | 51.29213 | 3.91107 | 35096 ft | 461 kts | 23° |
| 2026-05-07 17:53 | 51.35020 | 3.95365 | 35100 ft | 461 kts | 23° |
| 2026-05-07 17:54 | 51.40842 | 3.99645 | 35103 ft | 461 kts | 23° |
| 2026-05-07 17:54 | 51.46639 | 4.04143 | 35102 ft | 462 kts | 30° |
| 2026-05-07 17:55 | 51.51616 | 4.10652 | 35109 ft | 463 kts | 45° |
| 2026-05-07 17:55 | 51.56113 | 4.18055 | 35107 ft | 464 kts | 45° |
| 2026-05-07 17:56 | 51.60633 | 4.25493 | 35102 ft | 464 kts | 45° |
| 2026-05-07 17:56 | 51.65306 | 4.32544 | 35103 ft | 463 kts | 40° |
| 2026-05-07 17:57 | 51.69412 | 4.38148 | 35098 ft | 463 kts | 39° |
| 2026-05-07 17:57 | 51.75169 | 4.45899 | 35101 ft | 463 kts | 39° |
| 2026-05-07 17:58 | 51.80103 | 4.52615 | 35101 ft | 463 kts | 39° |
| 2026-05-07 17:58 | 51.84981 | 4.59320 | 35106 ft | 463 kts | 40° |
| 2026-05-07 17:59 | 51.89890 | 4.66099 | 35104 ft | 463 kts | 40° |
| 2026-05-07 17:59 | 51.94766 | 4.72834 | 35102 ft | 463 kts | 40° |
| 2026-05-07 18:00 | 51.99677 | 4.79625 | 35100 ft | 463 kts | 40° |
| 2026-05-07 18:00 | 52.04578 | 4.86428 | 35101 ft | 463 kts | 40° |
| 2026-05-07 18:01 | 52.09441 | 4.93200 | 35102 ft | 462 kts | 40° |
| 2026-05-07 18:01 | 52.14326 | 5.00032 | 35103 ft | 462 kts | 40° |
| 2026-05-07 18:02 | 52.21641 | 5.10310 | 35103 ft | 462 kts | 40° |
| 2026-05-07 18:03 | 52.26477 | 5.17151 | 35103 ft | 461 kts | 41° |
| 2026-05-07 18:03 | 52.31326 | 5.24019 | 35102 ft | 461 kts | 41° |
| 2026-05-07 18:04 | 52.36179 | 5.30908 | 35105 ft | 461 kts | 41° |
| 2026-05-07 18:04 | 52.40984 | 5.37754 | 35108 ft | 460 kts | 41° |
| 2026-05-07 18:05 | 52.45817 | 5.44673 | 35103 ft | 460 kts | 41° |
| 2026-05-07 18:05 | 52.50618 | 5.51562 | 35104 ft | 460 kts | 41° |
| 2026-05-07 18:06 | 52.55427 | 5.58478 | 35107 ft | 460 kts | 41° |
| 2026-05-07 18:06 | 52.60239 | 5.65423 | 35106 ft | 459 kts | 41° |
| 2026-05-07 18:07 | 52.65042 | 5.72370 | 35106 ft | 459 kts | 41° |
| 2026-05-07 18:07 | 52.69807 | 5.79293 | 35103 ft | 458 kts | 41° |
| 2026-05-07 18:08 | 52.74595 | 5.86267 | 35106 ft | 458 kts | 41° |
| 2026-05-07 18:08 | 52.79353 | 5.93222 | 35104 ft | 458 kts | 41° |
| 2026-05-07 18:09 | 52.84118 | 6.00208 | 35103 ft | 458 kts | 42° |
| 2026-05-07 18:09 | 52.88892 | 6.07212 | 35105 ft | 457 kts | 42° |
| 2026-05-07 18:10 | 52.93651 | 6.14229 | 35111 ft | 457 kts | 42° |
| 2026-05-07 18:10 | 52.98364 | 6.21207 | 35117 ft | 457 kts | 42° |
| 2026-05-07 18:11 | 53.03109 | 6.28250 | 35122 ft | 456 kts | 42° |
| 2026-05-07 18:11 | 53.07833 | 6.35270 | 35132 ft | 456 kts | 42° |
| 2026-05-07 18:12 | 53.12536 | 6.42283 | 35136 ft | 455 kts | 42° |
| 2026-05-07 18:12 | 53.17244 | 6.49329 | 35140 ft | 454 kts | 43° |
| 2026-05-07 18:13 | 53.21909 | 6.56341 | 35138 ft | 453 kts | 43° |
| 2026-05-07 18:13 | 53.26581 | 6.63381 | 35133 ft | 452 kts | 43° |
| 2026-05-07 18:14 | 53.31245 | 6.70432 | 35127 ft | 451 kts | 43° |
| 2026-05-07 18:14 | 53.35891 | 6.77467 | 35123 ft | 450 kts | 43° |
| 2026-05-07 18:15 | 53.40492 | 6.84467 | 35128 ft | 448 kts | 43° |
| 2026-05-07 18:15 | 53.45095 | 6.91513 | 35135 ft | 447 kts | 44° |
| 2026-05-07 18:16 | 53.49680 | 6.98609 | 35137 ft | 446 kts | 44° |
| 2026-05-07 18:16 | 53.54208 | 7.05648 | 35135 ft | 445 kts | 44° |
| 2026-05-07 18:17 | 53.58754 | 7.12700 | 35132 ft | 444 kts | 44° |
| 2026-05-07 18:17 | 53.63290 | 7.19757 | 35131 ft | 443 kts | 44° |
| 2026-05-07 18:18 | 53.67806 | 7.26812 | 35129 ft | 442 kts | 44° |
| 2026-05-07 18:18 | 53.72278 | 7.33828 | 35128 ft | 441 kts | 44° |
| 2026-05-07 18:19 | 53.76784 | 7.40898 | 35128 ft | 441 kts | 44° |
| 2026-05-07 18:19 | 53.81271 | 7.47963 | 35131 ft | 440 kts | 44° |
| 2026-05-07 18:20 | 53.85746 | 7.55054 | 35131 ft | 440 kts | 44° |
| 2026-05-07 18:20 | 53.90182 | 7.62109 | 35134 ft | 439 kts | 44° |
| 2026-05-07 18:21 | 53.94648 | 7.69222 | 35137 ft | 438 kts | 44° |
| 2026-05-07 18:21 | 53.99084 | 7.76301 | 35137 ft | 438 kts | 44° |
| 2026-05-07 18:22 | 54.03507 | 7.83382 | 35138 ft | 437 kts | 44° |
| 2026-05-07 18:22 | 54.07926 | 7.90487 | 35140 ft | 437 kts | 44° |
| 2026-05-07 18:23 | 54.12359 | 7.97634 | 35139 ft | 437 kts | 44° |
| 2026-05-07 18:23 | 54.16747 | 8.04714 | 35139 ft | 437 kts | 44° |
| 2026-05-07 18:24 | 54.21168 | 8.11874 | 35138 ft | 437 kts | 44° |
| 2026-05-07 18:24 | 54.25574 | 8.19033 | 35140 ft | 436 kts | 44° |
| 2026-05-07 18:25 | 54.29948 | 8.26177 | 35141 ft | 436 kts | 44° |
| 2026-05-07 18:25 | 54.34343 | 8.33368 | 35140 ft | 436 kts | 44° |
| 2026-05-07 18:26 | 54.38723 | 8.40564 | 35139 ft | 435 kts | 44° |
| 2026-05-07 18:26 | 54.43068 | 8.47726 | 35136 ft | 435 kts | 44° |
| 2026-05-07 18:27 | 54.47448 | 8.54953 | 35132 ft | 435 kts | 44° |
| 2026-05-07 18:27 | 54.51816 | 8.62191 | 35128 ft | 435 kts | 44° |
| 2026-05-07 18:28 | 54.56149 | 8.69394 | 35131 ft | 435 kts | 44° |
| 2026-05-07 18:28 | 54.60495 | 8.76656 | 35129 ft | 435 kts | 45° |
| 2026-05-07 18:29 | 54.64854 | 8.83944 | 35130 ft | 435 kts | 44° |
| 2026-05-07 18:29 | 54.68476 | 8.90002 | 35130 ft | 435 kts | 44° |
| 2026-05-07 18:30 | 54.72799 | 8.97267 | 35132 ft | 436 kts | 45° |
| 2026-05-07 18:30 | 54.77147 | 9.04615 | 35130 ft | 436 kts | 45° |
| 2026-05-07 18:31 | 54.81484 | 9.11977 | 35133 ft | 436 kts | 45° |
| 2026-05-07 18:31 | 54.85800 | 9.19319 | 35133 ft | 437 kts | 45° |
| 2026-05-07 18:32 | 54.90152 | 9.26706 | 35140 ft | 437 kts | 44° |
| 2026-05-07 18:32 | 54.94489 | 9.34074 | 35147 ft | 437 kts | 44° |
| 2026-05-07 18:33 | 54.98847 | 9.41498 | 35144 ft | 438 kts | 44° |
| 2026-05-07 18:33 | 55.03192 | 9.48926 | 35147 ft | 438 kts | 44° |
| 2026-05-07 18:34 | 55.07536 | 9.56397 | 35150 ft | 438 kts | 45° |
| 2026-05-07 18:34 | 55.11850 | 9.63851 | 35147 ft | 438 kts | 45° |
| 2026-05-07 18:35 | 55.16180 | 9.71337 | 35151 ft | 438 kts | 45° |
| 2026-05-07 18:35 | 55.20500 | 9.78817 | 35148 ft | 438 kts | 45° |
| 2026-05-07 18:36 | 55.24835 | 9.86372 | 35147 ft | 438 kts | 45° |
| 2026-05-07 18:36 | 55.29156 | 9.93930 | 35146 ft | 438 kts | 45° |
| 2026-05-07 18:37 | 55.33453 | 10.01456 | 35148 ft | 439 kts | 45° |
| 2026-05-07 18:37 | 55.37777 | 10.09066 | 35150 ft | 439 kts | 45° |
| 2026-05-07 18:38 | 55.42091 | 10.16681 | 35151 ft | 440 kts | 45° |
| 2026-05-07 18:38 | 55.46414 | 10.24326 | 35152 ft | 440 kts | 45° |
| 2026-05-07 18:39 | 55.50715 | 10.31948 | 35153 ft | 440 kts | 45° |
| 2026-05-07 18:39 | 55.55037 | 10.39638 | 35153 ft | 440 kts | 45° |
| 2026-05-07 18:40 | 55.59338 | 10.47329 | 35154 ft | 441 kts | 45° |
| 2026-05-07 18:40 | 55.63638 | 10.55052 | 35154 ft | 441 kts | 45° |
| 2026-05-07 18:41 | 55.67952 | 10.62807 | 35157 ft | 441 kts | 45° |
| 2026-05-07 18:41 | 55.72255 | 10.70567 | 35158 ft | 441 kts | 45° |
| 2026-05-07 18:42 | 55.76524 | 10.78295 | 35154 ft | 441 kts | 45° |
| 2026-05-07 18:42 | 55.80814 | 10.86103 | 35159 ft | 441 kts | 45° |
| 2026-05-07 18:43 | 55.85114 | 10.93941 | 35158 ft | 441 kts | 45° |
| 2026-05-07 18:43 | 55.89370 | 11.01723 | 35159 ft | 441 kts | 45° |
| 2026-05-07 18:44 | 55.93653 | 11.09585 | 35162 ft | 441 kts | 45° |
| 2026-05-07 18:44 | 55.97932 | 11.17473 | 35159 ft | 441 kts | 45° |
| 2026-05-07 18:45 | 56.02175 | 11.25316 | 35153 ft | 441 kts | 45° |
| 2026-05-07 18:45 | 56.06454 | 11.33247 | 35155 ft | 441 kts | 45° |
| 2026-05-07 18:46 | 56.10694 | 11.41145 | 35158 ft | 441 kts | 45° |
| 2026-05-07 18:46 | 56.14963 | 11.49103 | 35155 ft | 441 kts | 45° |
| 2026-05-07 18:47 | 56.19191 | 11.57033 | 35150 ft | 442 kts | 45° |
| 2026-05-07 18:47 | 56.23055 | 11.65630 | 35148 ft | 442 kts | 52° |
| 2026-05-07 18:48 | 56.26784 | 11.74456 | 35147 ft | 442 kts | 52° |
| 2026-05-07 18:48 | 56.30510 | 11.83303 | 35152 ft | 443 kts | 52° |
| 2026-05-07 18:49 | 56.34205 | 11.92125 | 35154 ft | 443 kts | 52° |
| 2026-05-07 18:49 | 56.37924 | 12.01012 | 35152 ft | 443 kts | 52° |
| 2026-05-07 18:50 | 56.41809 | 12.09697 | 35154 ft | 443 kts | 48° |
| 2026-05-07 18:50 | 56.45829 | 12.18042 | 35156 ft | 443 kts | 47° |
| 2026-05-07 18:51 | 56.49873 | 12.26482 | 35160 ft | 443 kts | 48° |
| 2026-05-07 18:51 | 56.53869 | 12.35027 | 35152 ft | 444 kts | 49° |
| 2026-05-07 18:52 | 56.57843 | 12.43627 | 35154 ft | 444 kts | 49° |
| 2026-05-07 18:52 | 56.61792 | 12.52170 | 35153 ft | 445 kts | 49° |
| 2026-05-07 18:53 | 56.65774 | 12.60808 | 35154 ft | 445 kts | 49° |
| 2026-05-07 18:53 | 56.69724 | 12.69406 | 35154 ft | 445 kts | 49° |
| 2026-05-07 18:54 | 56.73699 | 12.78078 | 35152 ft | 445 kts | 49° |
| 2026-05-07 18:54 | 56.77667 | 12.86758 | 35155 ft | 445 kts | 49° |
| 2026-05-07 18:55 | 56.81604 | 12.95423 | 35151 ft | 445 kts | 49° |
| 2026-05-07 18:55 | 56.85563 | 13.04167 | 35154 ft | 446 kts | 49° |
| 2026-05-07 18:56 | 56.89520 | 13.12937 | 35149 ft | 446 kts | 49° |
| 2026-05-07 18:56 | 56.93437 | 13.21647 | 35148 ft | 446 kts | 49° |
| 2026-05-07 18:57 | 56.97384 | 13.30458 | 35147 ft | 446 kts | 49° |
| 2026-05-07 18:57 | 57.01316 | 13.39281 | 35142 ft | 446 kts | 49° |
| 2026-05-07 18:58 | 57.05238 | 13.48111 | 35140 ft | 446 kts | 49° |
| 2026-05-07 18:58 | 57.09143 | 13.56924 | 35137 ft | 447 kts | 49° |
| 2026-05-07 18:59 | 57.13065 | 13.65817 | 35127 ft | 447 kts | 49° |
| 2026-05-07 18:59 | 57.16974 | 13.74670 | 35125 ft | 447 kts | 48° |
| 2026-05-07 19:00 | 57.21014 | 13.83410 | 35120 ft | 447 kts | 47° |
| 2026-05-07 19:00 | 57.25067 | 13.92119 | 35120 ft | 447 kts | 47° |
| 2026-05-07 19:01 | 57.29062 | 14.00951 | 35116 ft | 447 kts | 48° |
| 2026-05-07 19:01 | 57.33013 | 14.09773 | 35110 ft | 448 kts | 48° |
| 2026-05-07 19:02 | 57.36994 | 14.18651 | 35111 ft | 448 kts | 48° |
| 2026-05-07 19:02 | 57.40995 | 14.27564 | 35105 ft | 448 kts | 48° |
| 2026-05-07 19:03 | 57.44956 | 14.36429 | 35120 ft | 449 kts | 48° |
| 2026-05-07 19:03 | 57.48946 | 14.45388 | 35110 ft | 449 kts | 48° |
| 2026-05-07 19:04 | 57.52920 | 14.54363 | 35132 ft | 449 kts | 48° |
| 2026-05-07 19:04 | 57.56890 | 14.63365 | 35129 ft | 450 kts | 48° |
| 2026-05-07 19:05 | 57.60849 | 14.72393 | 35128 ft | 450 kts | 48° |
| 2026-05-07 19:05 | 57.64804 | 14.81428 | 35140 ft | 451 kts | 48° |
| 2026-05-07 19:06 | 57.68782 | 14.90550 | 35143 ft | 451 kts | 48° |
| 2026-05-07 19:06 | 57.74709 | 15.04202 | 35150 ft | 452 kts | 48° |
| 2026-05-07 19:07 | 57.78687 | 15.13392 | 35147 ft | 453 kts | 48° |
| 2026-05-07 19:07 | 57.82628 | 15.22539 | 35161 ft | 453 kts | 48° |
| 2026-05-07 19:08 | 57.86590 | 15.31772 | 35162 ft | 454 kts | 48° |
| 2026-05-07 19:08 | 57.90545 | 15.41033 | 35161 ft | 454 kts | 48° |
| 2026-05-07 19:09 | 57.94489 | 15.50326 | 35169 ft | 455 kts | 48° |
| 2026-05-07 19:09 | 57.98417 | 15.59611 | 35171 ft | 455 kts | 48° |
| 2026-05-07 19:10 | 58.02371 | 15.68984 | 35170 ft | 456 kts | 48° |
| 2026-05-07 19:10 | 58.06323 | 15.78363 | 35174 ft | 456 kts | 48° |
| 2026-05-07 19:11 | 58.10246 | 15.87723 | 35178 ft | 457 kts | 48° |
| 2026-05-07 19:11 | 58.14186 | 15.97180 | 35177 ft | 457 kts | 48° |
| 2026-05-07 19:12 | 58.18101 | 16.06609 | 35180 ft | 458 kts | 49° |
| 2026-05-07 19:12 | 58.22039 | 16.16137 | 35180 ft | 458 kts | 48° |
| 2026-05-07 19:13 | 58.25957 | 16.25635 | 35183 ft | 459 kts | 48° |
| 2026-05-07 19:13 | 58.29887 | 16.35212 | 35183 ft | 460 kts | 48° |
| 2026-05-07 19:14 | 58.33809 | 16.44799 | 35187 ft | 460 kts | 49° |
| 2026-05-07 19:14 | 58.37739 | 16.54444 | 35185 ft | 460 kts | 49° |
| 2026-05-07 19:15 | 58.41664 | 16.64117 | 35184 ft | 461 kts | 49° |
| 2026-05-07 19:15 | 58.45565 | 16.73770 | 35186 ft | 461 kts | 49° |
| 2026-05-07 19:16 | 58.49477 | 16.83503 | 35180 ft | 462 kts | 49° |
| 2026-05-07 19:16 | 58.53395 | 16.93294 | 35177 ft | 462 kts | 49° |
| 2026-05-07 19:17 | 58.57287 | 17.03039 | 35174 ft | 463 kts | 49° |
| 2026-05-07 19:17 | 58.61206 | 17.12898 | 35178 ft | 464 kts | 49° |
| 2026-05-07 19:18 | 58.64452 | 17.21091 | 35178 ft | 465 kts | 49° |
| 2026-05-07 19:18 | 58.69001 | 17.32621 | 35184 ft | 465 kts | 49° |
| 2026-05-07 19:19 | 58.72256 | 17.40923 | 35185 ft | 466 kts | 49° |
| 2026-05-07 19:19 | 58.76157 | 17.50935 | 35194 ft | 467 kts | 49° |
| 2026-05-07 19:20 | 58.80051 | 17.60949 | 35202 ft | 468 kts | 49° |
| 2026-05-07 19:20 | 58.83937 | 17.70959 | 35209 ft | 468 kts | 49° |
| 2026-05-07 19:21 | 58.87849 | 17.81066 | 35200 ft | 469 kts | 49° |
| 2026-05-07 19:21 | 58.91755 | 17.91225 | 35207 ft | 470 kts | 49° |
| 2026-05-07 19:22 | 58.95627 | 18.01363 | 35206 ft | 471 kts | 49° |
| 2026-05-07 19:22 | 58.99519 | 18.11585 | 35198 ft | 471 kts | 49° |
| 2026-05-07 19:23 | 59.03426 | 18.21864 | 35199 ft | 472 kts | 49° |
| 2026-05-07 19:23 | 59.07323 | 18.32163 | 35199 ft | 473 kts | 49° |
| 2026-05-07 19:24 | 59.11190 | 18.42457 | 35201 ft | 474 kts | 49° |
| 2026-05-07 19:24 | 59.15080 | 18.52876 | 35203 ft | 474 kts | 49° |
| 2026-05-07 19:25 | 59.18949 | 18.63243 | 35202 ft | 475 kts | 49° |
| 2026-05-07 19:25 | 59.22839 | 18.73693 | 35205 ft | 476 kts | 49° |
| 2026-05-07 19:26 | 59.26728 | 18.84213 | 35204 ft | 477 kts | 50° |
| 2026-05-07 19:26 | 59.30592 | 18.94718 | 35209 ft | 478 kts | 50° |
| 2026-05-07 19:27 | 59.34463 | 19.05311 | 35209 ft | 478 kts | 50° |
| 2026-05-07 19:27 | 59.38347 | 19.15949 | 35208 ft | 479 kts | 50° |
| 2026-05-07 19:28 | 59.42202 | 19.26555 | 35210 ft | 480 kts | 50° |
| 2026-05-07 19:28 | 59.46066 | 19.37251 | 35209 ft | 480 kts | 50° |
| 2026-05-07 19:29 | 59.49935 | 19.48039 | 35208 ft | 481 kts | 50° |
| 2026-05-07 19:29 | 59.53787 | 19.58782 | 35205 ft | 482 kts | 50° |
| 2026-05-07 19:30 | 59.57654 | 19.69598 | 35204 ft | 482 kts | 50° |
| 2026-05-07 19:30 | 59.61492 | 19.80420 | 35205 ft | 483 kts | 51° |
| 2026-05-07 19:31 | 59.65358 | 19.91333 | 35205 ft | 483 kts | 50° |
| 2026-05-07 19:31 | 59.69336 | 20.02095 | 35208 ft | 483 kts | 49° |
| 2026-05-07 19:32 | 59.73333 | 20.12714 | 35211 ft | 484 kts | 49° |
| 2026-05-07 19:32 | 59.77341 | 20.23483 | 35208 ft | 484 kts | 49° |
| 2026-05-07 19:33 | 59.81309 | 20.34322 | 35210 ft | 485 kts | 49° |
| 2026-05-07 19:33 | 59.85244 | 20.45155 | 35210 ft | 485 kts | 50° |
| 2026-05-07 19:34 | 59.89209 | 20.56079 | 35211 ft | 486 kts | 49° |
| 2026-05-07 19:34 | 59.93173 | 20.67002 | 35207 ft | 486 kts | 50° |
| 2026-05-07 19:35 | 59.97133 | 20.78001 | 35207 ft | 487 kts | 50° |
| 2026-05-07 19:35 | 60.01073 | 20.89040 | 35193 ft | 488 kts | 50° |
| 2026-05-07 19:36 | 60.04993 | 21.00035 | 34129 ft | 488 kts | 49° |
| 2026-05-07 19:36 | 60.06945 | 21.05529 | 33249 ft | 477 kts | 49° |
| 2026-05-07 19:36 | 60.08842 | 21.10897 | 32340 ft | 468 kts | 49° |
| 2026-05-07 19:37 | 60.10712 | 21.16200 | 31408 ft | 460 kts | 49° |
| 2026-05-07 19:37 | 60.12540 | 21.21391 | 30499 ft | 453 kts | 49° |
| 2026-05-07 19:37 | 60.14347 | 21.26526 | 29560 ft | 445 kts | 49° |
| 2026-05-07 19:37 | 60.16070 | 21.31458 | 28974 ft | 430 kts | 49° |
| 2026-05-07 19:38 | 60.17786 | 21.36369 | 27989 ft | 427 kts | 49° |
| 2026-05-07 19:38 | 60.19324 | 21.41459 | 27089 ft | 427 kts | 58° |
| 2026-05-07 19:38 | 60.20485 | 21.46891 | 26255 ft | 426 kts | 68° |
| 2026-05-07 19:38 | 60.21258 | 21.52652 | 25498 ft | 421 kts | 76° |
| 2026-05-07 19:39 | 60.21831 | 21.58308 | 24946 ft | 409 kts | 75° |
| 2026-05-07 19:39 | 60.22415 | 21.63930 | 24281 ft | 408 kts | 75° |
| 2026-05-07 19:39 | 60.22994 | 21.69431 | 23611 ft | 404 kts | 75° |
| 2026-05-07 19:39 | 60.23575 | 21.74933 | 22736 ft | 399 kts | 75° |
| 2026-05-07 19:40 | 60.24140 | 21.80315 | 22296 ft | 385 kts | 75° |
| 2026-05-07 19:40 | 60.24693 | 21.85616 | 22165 ft | 388 kts | 75° |
| 2026-05-07 19:40 | 60.25246 | 21.90958 | 22071 ft | 389 kts | 75° |
| 2026-05-07 19:40 | 60.25795 | 21.96316 | 21980 ft | 389 kts | 75° |
| 2026-05-07 19:41 | 60.26339 | 22.01654 | 21889 ft | 388 kts | 75° |
| 2026-05-07 19:41 | 60.26871 | 22.06910 | 21799 ft | 388 kts | 76° |
| 2026-05-07 19:41 | 60.27408 | 22.12238 | 21704 ft | 387 kts | 76° |
| 2026-05-07 19:41 | 60.27940 | 22.17563 | 21616 ft | 387 kts | 76° |
| 2026-05-07 19:42 | 60.28470 | 22.22900 | 21526 ft | 386 kts | 76° |
| 2026-05-07 19:42 | 60.28997 | 22.28197 | 21463 ft | 387 kts | 76° |
| 2026-05-07 19:42 | 60.29525 | 22.33531 | 21341 ft | 385 kts | 76° |
| 2026-05-07 19:42 | 60.30047 | 22.38831 | 21247 ft | 385 kts | 76° |
| 2026-05-07 19:43 | 60.30566 | 22.44120 | 21156 ft | 384 kts | 76° |
| 2026-05-07 19:43 | 60.31079 | 22.49338 | 21072 ft | 384 kts | 76° |
| 2026-05-07 19:43 | 60.31596 | 22.54622 | 20981 ft | 383 kts | 76° |
| 2026-05-07 19:43 | 60.32110 | 22.59904 | 20898 ft | 383 kts | 76° |
| 2026-05-07 19:44 | 60.32621 | 22.65164 | 20802 ft | 383 kts | 76° |
| 2026-05-07 19:44 | 60.33129 | 22.70436 | 20442 ft | 381 kts | 76° |
| 2026-05-07 19:44 | 60.33632 | 22.75691 | 20041 ft | 378 kts | 76° |
| 2026-05-07 19:44 | 60.34127 | 22.80905 | 19630 ft | 375 kts | 76° |
| 2026-05-07 19:45 | 60.34613 | 22.86050 | 19232 ft | 372 kts | 76° |
| 2026-05-07 19:45 | 60.35089 | 22.91112 | 18831 ft | 369 kts | 76° |
| 2026-05-07 19:45 | 60.35565 | 22.96212 | 18425 ft | 366 kts | 76° |
| 2026-05-07 19:45 | 60.36036 | 23.01264 | 17998 ft | 363 kts | 76° |
| 2026-05-07 19:46 | 60.36502 | 23.06269 | 17600 ft | 360 kts | 76° |
| 2026-05-07 19:46 | 60.36956 | 23.11169 | 17205 ft | 357 kts | 76° |
| 2026-05-07 19:46 | 60.37413 | 23.16089 | 16813 ft | 354 kts | 76° |
| 2026-05-07 19:46 | 60.37863 | 23.20965 | 16430 ft | 351 kts | 76° |
| 2026-05-07 19:47 | 60.38304 | 23.25812 | 16038 ft | 348 kts | 76° |
| 2026-05-07 19:47 | 60.38740 | 23.30612 | 15649 ft | 345 kts | 76° |
| 2026-05-07 19:47 | 60.39171 | 23.35355 | 15263 ft | 342 kts | 76° |
| 2026-05-07 19:47 | 60.39599 | 23.40078 | 14871 ft | 339 kts | 76° |
| 2026-05-07 19:48 | 60.40022 | 23.44755 | 14484 ft | 336 kts | 77° |
| 2026-05-07 19:48 | 60.40439 | 23.49395 | 14103 ft | 333 kts | 77° |
| 2026-05-07 19:48 | 60.40846 | 23.53934 | 13705 ft | 330 kts | 77° |
| 2026-05-07 19:48 | 60.41201 | 23.58577 | 13328 ft | 341 kts | 81° |
| 2026-05-07 19:49 | 60.41439 | 23.63394 | 12941 ft | 345 kts | 83° |
| 2026-05-07 19:49 | 60.41625 | 23.68223 | 12562 ft | 343 kts | 84° |
| 2026-05-07 19:49 | 60.41783 | 23.73027 | 12185 ft | 339 kts | 84° |
| 2026-05-07 19:49 | 60.41932 | 23.77779 | 11813 ft | 336 kts | 84° |
| 2026-05-07 19:50 | 60.42084 | 23.82462 | 11447 ft | 331 kts | 83° |
| 2026-05-07 19:50 | 60.42244 | 23.87038 | 11076 ft | 327 kts | 84° |
| 2026-05-07 19:50 | 60.42405 | 23.91594 | 10380 ft | 319 kts | 84° |
| 2026-05-07 19:50 | 60.42563 | 23.95923 | 9961 ft | 301 kts | 84° |
| 2026-05-07 19:51 | 60.42721 | 24.00109 | 9615 ft | 289 kts | 84° |
| 2026-05-07 19:51 | 60.42880 | 24.04200 | 9477 ft | 293 kts | 84° |
| 2026-05-07 19:51 | 60.43040 | 24.08275 | 9284 ft | 294 kts | 84° |
| 2026-05-07 19:51 | 60.43196 | 24.12389 | 8865 ft | 291 kts | 84° |
| 2026-05-07 19:52 | 60.43346 | 24.16478 | 8445 ft | 289 kts | 84° |
| 2026-05-07 19:52 | 60.43494 | 24.20517 | 8028 ft | 287 kts | 85° |
| 2026-05-07 19:52 | 60.43638 | 24.24528 | 7602 ft | 284 kts | 85° |
| 2026-05-07 19:52 | 60.43779 | 24.28453 | 7193 ft | 282 kts | 85° |
| 2026-05-07 19:53 | 60.43920 | 24.32397 | 6781 ft | 279 kts | 85° |
| 2026-05-07 19:53 | 60.44056 | 24.36307 | 6357 ft | 277 kts | 85° |
| 2026-05-07 19:53 | 60.44189 | 24.40191 | 5948 ft | 274 kts | 85° |
| 2026-05-07 19:53 | 60.44322 | 24.44037 | 5545 ft | 272 kts | 84° |
| 2026-05-07 19:54 | 60.44454 | 24.47853 | 5145 ft | 270 kts | 84° |
| 2026-05-07 19:54 | 60.44584 | 24.51619 | 4742 ft | 267 kts | 84° |
| 2026-05-07 19:54 | 60.44712 | 24.55326 | 4339 ft | 263 kts | 84° |
| 2026-05-07 19:54 | 60.44831 | 24.58909 | 4079 ft | 244 kts | 83° |
| 2026-05-07 19:55 | 60.44936 | 24.62174 | 3867 ft | 223 kts | 83° |
| 2026-05-07 19:55 | 60.45032 | 24.65206 | 3639 ft | 204 kts | 82° |
| 2026-05-07 19:55 | 60.45117 | 24.67941 | 3377 ft | 188 kts | 82° |
| 2026-05-07 19:55 | 60.45204 | 24.70565 | 2876 ft | 185 kts | 81° |
| 2026-05-07 19:56 | 60.45290 | 24.73131 | 2617 ft | 177 kts | 81° |
| 2026-05-07 19:56 | 60.45366 | 24.75514 | 2456 ft | 166 kts | 81° |
| 2026-05-07 19:56 | 60.45442 | 24.77837 | 2185 ft | 164 kts | 81° |
| 2026-05-07 19:56 | 60.45476 | 24.80143 | 2025 ft | 166 kts | 90° |
| 2026-05-07 19:57 | 60.45162 | 24.82404 | 2006 ft | 168 kts | 111° |
| 2026-05-07 19:57 | 60.44483 | 24.84306 | 2038 ft | 165 kts | 133° |
| 2026-05-07 19:57 | 60.43531 | 24.85531 | 2024 ft | 162 kts | 149° |
| 2026-05-07 19:57 | 60.42542 | 24.86608 | 2011 ft | 160 kts | 150° |
| 2026-05-07 19:58 | 60.41557 | 24.87647 | 1992 ft | 160 kts | 151° |
| 2026-05-07 19:58 | 60.40565 | 24.88681 | 1849 ft | 160 kts | 152° |
| 2026-05-07 19:58 | 60.39577 | 24.89704 | 1664 ft | 158 kts | 152° |
| 2026-05-07 19:58 | 60.38596 | 24.90717 | 1461 ft | 157 kts | 152° |
| 2026-05-07 19:59 | 60.37640 | 24.91701 | 1246 ft | 155 kts | 153° |
| 2026-05-07 19:59 | 60.36689 | 24.92681 | 1030 ft | 152 kts | 153° |
| 2026-05-07 19:59 | 60.35758 | 24.93639 | 822 ft | 148 kts | 154° |
| 2026-05-07 19:59 | 60.34853 | 24.94570 | 623 ft | 145 kts | 154° |
| 2026-05-07 20:00 | 60.33958 | 24.95490 | 423 ft | 144 kts | 154° |
| 2026-05-07 20:00 | 60.33073 | 24.96410 | 240 ft | 143 kts | 150° |
| 2026-05-07 20:00 | 60.32265 | 24.97246 | 158 ft | 105 kts | 154° |
| 2026-05-07 20:00 | 60.31873 | 24.97633 | 152 ft | 32 kts | 153° |
| 2026-05-07 20:01 | 60.31733 | 24.97736 | 153 ft | 11 kts | 194° |
| 2026-05-07 20:01 | 60.31677 | 24.97651 | 154 ft | 4 kts | 239° |
| 2026-05-07 20:01 | 60.31664 | 24.97602 | 155 ft | 3 kts | 244° |
| 2026-05-07 20:01 | 60.31662 | 24.97596 | 155 ft | 0 kts | 244° |
| 2026-05-07 20:02 | 60.31661 | 24.97590 | 156 ft | 1 kts | 244° |
| 2026-05-07 20:02 | 60.31660 | 24.97586 | 156 ft | 0 kts | 245° |
| 2026-05-07 20:03 | 60.31659 | 24.97570 | 156 ft | 2 kts | 260° |
| 2026-05-07 20:03 | 60.31659 | 24.97561 | 157 ft | 0 kts | 270° |
| 2026-05-07 20:03 | 60.31662 | 24.97542 | 158 ft | 3 kts | 287° |
| 2026-05-07 20:03 | 60.31687 | 24.97491 | 159 ft | 7 kts | 325° |
| 2026-05-07 20:04 | 60.31736 | 24.97435 | 160 ft | 9 kts | 332° |
| 2026-05-07 20:04 | 60.31799 | 24.97371 | 161 ft | 12 kts | 334° |
| 2026-05-07 20:04 | 60.31881 | 24.97287 | 162 ft | 14 kts | 332° |
| 2026-05-07 20:04 | 60.31978 | 24.97184 | 165 ft | 17 kts | 332° |
| 2026-05-07 20:05 | 60.32055 | 24.97104 | 166 ft | 20 kts | 334° |
| 2026-05-07 20:05 | 60.32124 | 24.97034 | 166 ft | 6 kts | 333° |
| 2026-05-07 20:05 | 60.32134 | 24.96932 | 166 ft | 7 kts | 230° |
| 2026-05-07 20:05 | 60.32114 | 24.96899 | 166 ft | 4 kts | 210° |
| 2026-05-07 20:06 | 60.32083 | 24.96880 | 166 ft | 3 kts | 195° |
| 2026-05-07 20:06 | 60.32057 | 24.96867 | 167 ft | 3 kts | 193° |
| 2026-05-07 20:06 | 60.32036 | 24.96858 | 167 ft | 2 kts | 193° |
| 2026-05-07 20:06 | 60.32027 | 24.96853 | 167 ft | 1 kts | 193° |
| 2026-05-07 20:07 | 60.32020 | 24.96850 | 167 ft | 0 kts | 193° |
| 2026-05-07 20:07 | 60.32014 | 24.96847 | 167 ft | 1 kts | 193° |
| 2026-05-07 20:07 | 60.32013 | 24.96846 | 167 ft | 0 kts | 193° |